Atlantic City International Airport
KACY : now visible

Airfield :











YOU CAN JOIN US ON...

 
LOGIN :

Register | Disclaimer

   EN    FR    IT 

 









Legend :    VFR   Marginal VFR   IFR   Intensive IFR   Very Intensive IFR
Visi :
Ceiling :
>= 8 km
>= 3000ft
5 to 8 km
1000 to 3000 ft
1500m to 5 km
500 to 1000 ft
800 to 1500m
200 to 500 ft
< 800m
< 200 ft
Symbols :   Thunderstorms  Fog  Heavy snow  Heavy precipitations  Wind > 20 kt






- Airport Elevation : 75 ft
- IATA code : ACY


KACY - Atlantic City International

CURRENT METAR :
  • 192254Z 00000KT 9SM CLR 08/04 A2984 RMK AO2 SLP105 T00780039

EXPIRED METARs :
  • 192154Z 00000KT 10SM CLR 09/03 A2983 RMK AO2 SLP100 T00890033
  • 192054Z 32003KT 10SM CLR 11/04 A2981 RMK AO2 SLP093 T01060039 53005
  • 191954Z 32008KT 10SM CLR 11/04 A2979 RMK AO2 SLP086 T01110044

TAF KACY
Valid from the 19 at 18:00 until the 20 at 18:00 UTC


191732Z 1918/2018 27005KT P6SM FEW020 SCT250
FM192200 VRB03KT P6SM BKN100
FM201000 31007KT P6SM BKN050
FM201600 32012G22KT P6SM BKN050



MET'MAP, your aeronautical weather chart ! - Copyright ORBIFLY December 2007 - Disclaimer

ORBIFLY MET'MAP TEAM :

Programming & Development : Alexandra Zaïnal
Concept & Development : Baudouin d'Aumeries
Co-Development & Prog : Marc-Olivier Méhu
Technical & hardware support : Manuel Goepfert

Contact : metmap@orbifly.com




SOURCES & CREDITS :

   NOAA       Earth
Advisory